Airfield :
LOGIN :

Register | Disclaimer

   EN    FR    IT 

 










Legend :    VFR   Marginal VFR   IFR   Intensive IFR   Very Intensive IFR
Visi :
Ceiling :
>= 8 km
>= 3000ft
5 to 8 km
1000 to 3000 ft
1500m to 5 km
500 to 1000 ft
800 to 1500m
200 to 500 ft
< 800m
< 200 ft
Symbols :   Thunderstorms  Fog  Heavy snow  Heavy precipitations  Wind > 20 kt
SIGMETs :     Misc.  Thunderstorms  Icing  Turbulence  Mountain Waves  Volcanic Ashes






- Airport Elevation : 291 ft
- IATA code : ORY


LFPO - Paris-Orly

CURRENT METAR :
  • 052300Z 21010KT 170V230 9999 BKN013 17/16 Q1004 NOSIG

EXPIRED METARs :
  • 052230Z 20009KT 9999 BKN011 BKN019 17/16 Q1004 NOSIG
  • 052200Z 20009KT 170V230 9999 BKN014 BKN022 BKN060 17/16 Q1005 NOSIG
  • 052130Z 19007KT 9999 FEW014 BKN022 BKN044 17/16 Q1005 NOSIG
  • 052100Z 19010KT 9999 FEW008 SCT027 BKN050 17/17 Q1005 NOSIG
  • 052030Z 19012KT 150V210 6000 -RA SCT008 SCT019 BKN044 17/17 Q1005 TEMPO 4000 -RA BKN008

TAF TAF LFPO
Valid from the 05 at 18:00 until the 07 at 00:00 UTC


051700Z 0518/0624 21015G25KT 9999 BKN030 BKN070
TEMPO 0518/0521 4000 -RA BKN008 BKN012
TEMPO 0521/0603 4000 -SHRA BKN012 SCT020TCU
PROB30
TEMPO 0612/0617 23015G30KT -SHRA BKN040 SCT045TCU
ATIS : +33 1 49 75 65 80



MET'MAP, your aeronautical weather chart ! - Copyright ORBIFLY December 2007 - Disclaimer

ORBIFLY MET'MAP TEAM :

Programming & Development : Alexandra Zaïnal
Concept & original design : Baudouin d'Aumeries
Assistance for programming : Marc-Olivier Méhu
Technical & hardware support : Manuel Goepfert

Contact : metmap@orbifly.com




SOURCES & CREDITS :

   NOAA